Bergoo, West Virginia
Current Conditions -  °F | °C
As of 10:55 PM on Wednesday 28 Jan 2015 (Local Time) from KW22 Reporting Station
Clear Clear  
Wind Chill: 18°   Ceiling: Unl
Heat Index: 18°   Visibility: 10mi
Dew Point: 12°   Wind: 0mph
Humidity: 79%   Direction: NA
Pressure: 30.24"   Gusts: NA
Location:  38.49°N, 80.3°W
Report Text: KW22 290355Z AUTO 00000KT 10SM CLR M08/M11 A3024 RMK AO2
Loading
Personal Weather Stations






























Interactive Weather Map New forecast layout! Learn more

10-Day Weather Forecast

Advertisements
Track Severe Weather on mobile